createdAt,value
2022-10-11T00:00:06.553Z,3236
2022-10-11T00:00:58.358Z,2974
2022-10-11T00:01:50.084Z,3083
2022-10-11T00:02:41.858Z,3101
2022-10-11T00:03:33.592Z,3091
2022-10-11T00:04:25.340Z,2980
2022-10-11T00:05:17.105Z,2968
2022-10-11T00:06:09.253Z,2908
2022-10-11T00:07:00.554Z,2710
2022-10-11T00:07:52.355Z,2801
2022-10-11T00:08:44.132Z,2815
2022-10-11T00:09:35.874Z,2716
2022-10-11T00:10:27.647Z,2833
2022-10-11T00:11:19.354Z,2700
2022-10-11T00:12:11.169Z,2619
2022-10-11T00:13:02.906Z,2585
2022-10-11T00:13:54.662Z,2593
2022-10-11T00:14:46.413Z,2509
2022-10-11T00:15:38.182Z,2611
2022-10-11T00:16:29.830Z,2652
2022-10-11T00:17:21.678Z,2587
2022-10-11T00:18:13.423Z,2654
2022-10-11T00:19:05.220Z,2752
2022-10-11T00:19:56.954Z,2692
2022-10-11T00:20:48.715Z,2660
2022-10-11T00:21:40.468Z,2625
2022-10-11T00:22:32.216Z,2591
2022-10-11T00:23:23.970Z,2559
2022-10-11T00:24:15.730Z,2511
2022-10-11T00:25:07.466Z,2515
2022-10-11T00:25:59.249Z,2444
2022-10-11T00:26:50.990Z,2468
2022-10-11T00:27:42.754Z,2372
2022-10-11T00:28:34.570Z,2420
2022-10-11T00:29:26.255Z,2380
2022-10-11T00:30:18.042Z,2331
2022-10-11T00:31:09.701Z,2319
2022-10-11T00:32:01.506Z,2265
2022-10-11T00:32:53.276Z,2196
2022-10-11T00:33:45.035Z,2144
2022-10-11T00:34:36.801Z,2108
2022-10-11T00:35:28.519Z,2053
2022-10-11T00:36:20.306Z,2172
2022-10-11T00:37:12.030Z,2079
2022-10-11T00:38:03.821Z,2140
2022-10-11T00:38:55.538Z,2136
2022-10-11T00:39:47.311Z,2007
2022-10-11T00:40:39.056Z,2015
2022-10-11T00:41:30.760Z,2017
2022-10-11T00:42:22.562Z,2029
2022-10-11T00:43:14.316Z,1880
2022-10-11T00:44:06.065Z,1834
2022-10-11T00:44:57.821Z,1983
2022-10-11T00:45:49.638Z,1834
2022-10-11T00:46:41.313Z,1846
2022-10-11T00:47:33.073Z,1918
2022-10-11T00:48:24.850Z,1862
2022-10-11T00:49:16.581Z,1846
2022-10-11T00:50:08.357Z,1801
2022-10-11T00:51:00.015Z,1745
2022-10-11T00:51:51.851Z,1668
2022-10-11T00:52:43.591Z,1775
2022-10-11T00:53:35.378Z,1664
2022-10-11T00:54:27.098Z,1686
2022-10-11T00:55:18.875Z,1741
2022-10-11T00:56:10.599Z,1572
2022-10-11T00:57:02.381Z,1606
2022-10-11T00:57:54.107Z,1666
2022-10-11T00:58:45.887Z,1519
2022-10-11T00:59:37.626Z,1521
2022-10-11T01:00:29.384Z,1610
2022-10-11T01:01:21.152Z,1559
2022-10-11T01:02:12.887Z,1537
2022-10-11T01:03:04.632Z,1477
2022-10-11T01:03:56.392Z,1511
2022-10-11T01:04:48.148Z,1515
2022-10-11T01:05:39.811Z,1432
2022-10-11T01:06:31.650Z,1449
2022-10-11T01:07:23.410Z,1475
2022-10-11T01:08:15.158Z,1428
2022-10-11T01:09:06.916Z,1396
2022-10-11T01:09:58.660Z,1402
2022-10-11T01:10:50.426Z,1376
2022-10-11T01:11:42.154Z,1354
2022-10-11T01:12:33.920Z,1404
2022-10-11T01:13:25.658Z,1386
2022-10-11T01:14:17.414Z,1314
2022-10-11T01:15:09.171Z,1306
2022-10-11T01:16:01.109Z,1372
2022-10-11T01:16:52.656Z,1396
2022-10-11T01:17:44.412Z,1350
2022-10-11T01:18:36.147Z,1318
2022-10-11T01:19:27.935Z,1285
2022-10-11T01:20:19.564Z,1285
2022-10-11T01:21:11.413Z,1362
2022-10-11T01:22:03.155Z,1314
2022-10-11T01:22:54.913Z,1372
2022-10-11T01:23:46.647Z,1320
2022-10-11T01:24:38.413Z,1368
2022-10-11T01:25:30.128Z,1318
2022-10-11T01:26:21.925Z,1408
2022-10-11T01:27:13.666Z,1521
2022-10-11T01:28:05.425Z,1420
2022-10-11T01:28:57.223Z,1459
2022-10-11T01:29:48.924Z,1471
2022-10-11T01:30:40.652Z,1467
2022-10-11T01:31:32.421Z,1249
2022-10-11T01:32:24.158Z,1314
2022-10-11T01:33:15.922Z,1245
2022-10-11T01:34:07.685Z,1306
2022-10-11T01:34:59.432Z,1271
2022-10-11T01:35:51.180Z,1245
2022-10-11T01:36:42.925Z,1281
2022-10-11T01:37:34.668Z,1426
2022-10-11T01:38:26.417Z,1364
2022-10-11T01:39:18.164Z,1277
2022-10-11T01:40:09.845Z,1314
2022-10-11T01:41:01.707Z,1235
2022-10-11T01:41:53.450Z,1203
2022-10-11T01:42:45.171Z,1197
2022-10-11T01:43:36.943Z,1233
2022-10-11T01:44:28.675Z,1175
2022-10-11T01:45:20.462Z,1219
2022-10-11T01:46:12.188Z,1223
2022-10-11T01:47:03.951Z,1173
2022-10-11T01:47:55.681Z,1187
2022-10-11T01:48:47.450Z,1167
2022-10-11T01:49:39.209Z,1142
2022-10-11T01:50:30.958Z,1066
2022-10-11T01:51:22.723Z,1062
2022-10-11T01:52:14.466Z,1173
2022-10-11T01:53:06.229Z,1082
2022-10-11T01:53:57.965Z,1070
2022-10-11T01:55:08.740Z,1088
2022-10-11T01:55:41.464Z,1094
2022-10-11T01:56:33.232Z,1032
2022-10-11T01:57:24.961Z,1013
2022-10-11T01:58:16.701Z,1058
2022-10-11T01:59:08.476Z,1036
2022-10-11T02:00:00.149Z,1011
2022-10-11T02:00:51.997Z,995
2022-10-11T02:01:43.849Z,917
2022-10-11T02:02:35.486Z,961
2022-10-11T02:03:27.227Z,911
2022-10-11T02:04:18.976Z,1167
2022-10-11T02:05:10.710Z,1193
2022-10-11T02:06:02.937Z,1279
2022-10-11T02:06:54.206Z,1257
2022-10-11T02:07:45.969Z,1171
2022-10-11T02:08:37.729Z,1106
2022-10-11T02:09:29.497Z,1191
2022-10-11T02:10:21.240Z,1215
2022-10-11T02:11:12.991Z,1213
2022-10-11T02:12:04.745Z,1227
2022-10-11T02:12:56.489Z,1183
2022-10-11T02:13:48.229Z,1193
2022-10-11T02:14:39.976Z,1152
2022-10-11T02:15:31.748Z,1112
2022-10-11T02:16:23.539Z,1144
2022-10-11T02:17:15.252Z,1158
2022-10-11T02:18:07.029Z,1094
2022-10-11T02:18:58.760Z,1160
2022-10-11T02:19:50.528Z,1163
2022-10-11T02:20:42.260Z,1154
2022-10-11T02:21:34.032Z,1120
2022-10-11T02:22:25.762Z,1090
2022-10-11T02:23:17.549Z,1066
2022-10-11T02:24:09.261Z,1163
2022-10-11T02:25:01.015Z,1092
2022-10-11T02:25:52.763Z,1179
2022-10-11T02:26:44.534Z,1267
2022-10-11T02:27:36.265Z,1469
2022-10-11T02:28:28.089Z,1817
2022-10-11T02:29:19.698Z,1827
2022-10-11T02:30:11.527Z,1821
2022-10-11T02:31:03.287Z,1813
2022-10-11T02:31:55.028Z,1761
2022-10-11T02:32:46.769Z,1749
2022-10-11T02:33:38.540Z,1753
2022-10-11T02:34:30.186Z,1757
2022-10-11T02:35:22.022Z,1678
2022-10-11T02:36:13.766Z,1729
2022-10-11T02:37:05.533Z,1797
2022-10-11T02:37:57.260Z,1719
2022-10-11T02:38:49.035Z,1745
2022-10-11T02:39:40.763Z,1499
2022-10-11T02:40:32.538Z,1499
2022-10-11T02:41:24.257Z,1493
2022-10-11T02:42:16.024Z,1543
2022-10-11T02:43:07.752Z,1479
2022-10-11T02:43:59.523Z,1543
2022-10-11T02:44:51.253Z,1487
2022-10-11T02:45:43.030Z,1555
2022-10-11T02:46:34.753Z,1547
2022-10-11T02:47:26.519Z,1471
2022-10-11T02:48:18.253Z,1473
2022-10-11T02:49:09.931Z,1559
2022-10-11T02:50:01.793Z,1408
2022-10-11T02:50:53.512Z,1485
2022-10-11T02:51:45.272Z,1410
2022-10-11T02:52:37.020Z,1370
2022-10-11T02:53:28.751Z,1465
2022-10-11T02:54:20.448Z,1545
2022-10-11T02:55:12.268Z,1703
2022-10-11T02:56:04.360Z,1682
2022-10-11T02:56:55.774Z,1618
2022-10-11T02:57:47.522Z,1561
2022-10-11T02:58:39.242Z,1461
2022-10-11T02:59:31.007Z,1439
2022-10-11T03:00:22.738Z,1380
2022-10-11T03:01:14.615Z,1612
2022-10-11T03:02:06.372Z,1799
2022-10-11T03:02:58.029Z,1866
2022-10-11T03:03:49.655Z,1952
2022-10-11T03:04:41.509Z,1922
2022-10-11T03:05:33.233Z,1890
2022-10-11T03:06:24.990Z,1836
2022-10-11T03:07:16.730Z,1723
2022-10-11T03:08:08.488Z,1749
2022-10-11T03:09:00.139Z,1676
2022-10-11T03:09:51.978Z,1717
2022-10-11T03:10:43.724Z,1666
2022-10-11T03:11:35.492Z,1664
2022-10-11T03:12:27.227Z,1588
2022-10-11T03:13:19.004Z,1610
2022-10-11T03:14:10.703Z,1557
2022-10-11T03:15:02.400Z,1570
2022-10-11T03:16:02.626Z,1537
2022-10-11T03:16:45.972Z,1475
2022-10-11T03:17:37.790Z,1515
2022-10-11T03:18:29.466Z,1443
2022-10-11T03:19:21.186Z,1515
2022-10-11T03:20:12.968Z,1479
2022-10-11T03:21:04.697Z,1503
2022-10-11T03:21:56.434Z,1533
2022-10-11T03:22:48.174Z,1469
2022-10-11T03:23:39.867Z,1424
2022-10-11T03:24:31.671Z,1461
2022-10-11T03:25:23.437Z,1368
2022-10-11T03:26:15.164Z,1338
2022-10-11T03:27:06.929Z,1368
2022-10-11T03:27:58.662Z,1354
2022-10-11T03:28:50.390Z,1295
2022-10-11T03:29:42.158Z,1207
2022-10-11T03:30:33.932Z,1229
2022-10-11T03:31:25.637Z,1279
2022-10-11T03:32:17.395Z,1253
2022-10-11T03:33:09.138Z,1384
2022-10-11T03:34:00.810Z,1326
2022-10-11T03:34:52.637Z,1392
2022-10-11T03:35:44.382Z,1350
2022-10-11T03:36:36.133Z,1366
2022-10-11T03:37:27.880Z,1275
2022-10-11T03:38:19.615Z,1265
2022-10-11T03:39:11.374Z,1312
2022-10-11T03:40:03.092Z,1398
2022-10-11T03:40:54.889Z,1374
2022-10-11T03:41:46.605Z,1422
2022-10-11T03:42:38.377Z,1525
2022-10-11T03:43:30.022Z,1487
2022-10-11T03:44:21.866Z,1499
2022-10-11T03:45:13.615Z,1453
2022-10-11T03:46:05.739Z,1314
2022-10-11T03:46:57.078Z,1239
2022-10-11T03:47:48.838Z,1352
2022-10-11T03:48:40.540Z,1354
2022-10-11T03:49:32.326Z,1273
2022-10-11T03:50:24.074Z,1549
2022-10-11T03:51:15.826Z,1666
2022-10-11T03:52:07.567Z,1791
2022-10-11T03:52:59.321Z,1932
2022-10-11T03:53:51.071Z,2073
2022-10-11T03:54:42.808Z,1948
2022-10-11T03:55:34.546Z,1866
2022-10-11T03:56:26.300Z,1769
2022-10-11T03:57:18.030Z,1662
2022-10-11T03:58:09.754Z,1694
2022-10-11T03:59:01.542Z,1686
2022-10-11T03:59:53.297Z,1743
2022-10-11T04:00:45.020Z,1682
2022-10-11T04:01:36.804Z,1606
2022-10-11T04:02:28.509Z,1640
2022-10-11T04:03:20.244Z,1646
2022-10-11T04:04:11.999Z,1568
2022-10-11T04:05:03.758Z,1608
2022-10-11T04:05:55.491Z,1640
2022-10-11T04:06:47.247Z,1507
2022-10-11T04:07:38.905Z,1598
2022-10-11T04:08:30.735Z,1537
2022-10-11T04:09:22.459Z,1507
2022-10-11T04:10:14.216Z,1477
2022-10-11T04:11:05.950Z,1588
2022-10-11T04:11:57.710Z,1751
2022-10-11T04:12:49.441Z,1727
2022-10-11T04:13:41.200Z,1582
2022-10-11T04:14:32.949Z,1594
2022-10-11T04:15:24.692Z,1557
2022-10-11T04:16:16.447Z,1620
2022-10-11T04:17:08.178Z,1489
2022-10-11T04:17:59.837Z,1572
2022-10-11T04:18:51.670Z,1545
2022-10-11T04:19:43.391Z,1592
2022-10-11T04:20:35.155Z,1453
2022-10-11T04:21:26.895Z,1390
2022-10-11T04:22:18.659Z,1362
2022-10-11T04:23:10.319Z,1400
2022-10-11T04:24:02.140Z,1372
2022-10-11T04:24:53.875Z,1302
2022-10-11T04:25:45.630Z,1332
2022-10-11T04:26:37.370Z,1316
2022-10-11T04:27:29.120Z,1261
2022-10-11T04:28:20.930Z,1197
2022-10-11T04:29:12.620Z,1223
2022-10-11T04:30:04.368Z,1217
2022-10-11T04:30:56.117Z,1150
2022-10-11T04:31:47.839Z,1181
2022-10-11T04:32:39.602Z,1181
2022-10-11T04:33:31.337Z,1205
2022-10-11T04:34:23.084Z,1219
2022-10-11T04:35:14.837Z,1189
2022-10-11T04:36:07.214Z,1150
2022-10-11T04:36:58.311Z,1124
2022-10-11T04:37:50.011Z,1154
2022-10-11T04:38:41.806Z,1217
2022-10-11T04:39:33.546Z,1193
2022-10-11T04:40:25.289Z,1308
2022-10-11T04:41:17.045Z,1269
2022-10-11T04:42:08.771Z,1193
2022-10-11T04:43:00.527Z,1199
2022-10-11T04:43:52.264Z,1223
2022-10-11T04:44:44.028Z,1106
2022-10-11T04:45:35.739Z,1215
2022-10-11T04:46:27.507Z,1263
2022-10-11T04:47:19.228Z,1281
2022-10-11T04:48:11.022Z,1332
2022-10-11T04:49:02.720Z,1366
2022-10-11T04:49:54.472Z,1310
2022-10-11T04:50:46.203Z,1310
2022-10-11T04:51:37.971Z,1300
2022-10-11T04:52:29.707Z,1298
2022-10-11T04:53:21.463Z,1255
2022-10-11T04:54:13.183Z,1227
2022-10-11T04:55:04.934Z,1263
2022-10-11T04:55:56.687Z,1201
2022-10-11T04:56:48.431Z,1217
2022-10-11T04:57:40.103Z,1136
2022-10-11T04:58:31.938Z,1104
2022-10-11T04:59:23.663Z,1100
2022-10-11T05:00:15.414Z,1195
2022-10-11T05:01:07.159Z,1050
2022-10-11T05:01:58.974Z,1132
2022-10-11T05:02:50.623Z,1013
2022-10-11T05:03:42.379Z,1094
2022-10-11T05:04:34.106Z,1021
2022-10-11T05:05:25.872Z,1100
2022-10-11T05:06:17.584Z,1052
2022-10-11T05:07:09.354Z,1136
2022-10-11T05:08:00.995Z,1062
2022-10-11T05:08:52.856Z,993
2022-10-11T05:09:44.561Z,985
2022-10-11T05:10:36.337Z,1013
2022-10-11T05:11:28.042Z,1124
2022-10-11T05:12:19.798Z,971
2022-10-11T05:13:11.538Z,1086
2022-10-11T05:14:03.295Z,961
2022-10-11T05:14:55.023Z,1029
2022-10-11T05:15:46.783Z,1124
2022-10-11T05:16:38.513Z,1104
2022-10-11T05:17:30.208Z,1336
2022-10-11T05:18:21.992Z,1477
2022-10-11T05:19:13.773Z,1531
2022-10-11T05:20:05.491Z,1711
2022-10-11T05:20:57.241Z,1688
2022-10-11T05:21:48.956Z,1507
2022-10-11T05:22:40.716Z,1467
2022-10-11T05:23:32.428Z,1572
2022-10-11T05:24:24.212Z,1547
2022-10-11T05:25:15.913Z,1416
2022-10-11T05:26:08.331Z,1435
2022-10-11T05:27:03.196Z,1370
2022-10-11T05:27:51.145Z,1469
2022-10-11T05:28:43.009Z,1551
2022-10-11T05:29:34.626Z,1475
2022-10-11T05:30:26.362Z,1527
2022-10-11T05:31:18.115Z,1662
2022-10-11T05:32:09.851Z,1535
2022-10-11T05:33:01.648Z,1374
2022-10-11T05:33:53.333Z,1479
2022-10-11T05:34:45.067Z,1402
2022-10-11T05:35:36.790Z,1441
2022-10-11T05:36:28.551Z,1412
2022-10-11T05:37:20.195Z,1404
2022-10-11T05:38:12.022Z,1368
2022-10-11T05:39:03.749Z,1420
2022-10-11T05:39:55.517Z,1392
2022-10-11T05:40:47.235Z,1432
2022-10-11T05:41:38.988Z,1396
2022-10-11T05:42:30.704Z,1334
2022-10-11T05:43:22.466Z,1271
2022-10-11T05:44:14.181Z,1239
2022-10-11T05:45:05.921Z,1144
2022-10-11T05:45:57.675Z,1140
2022-10-11T05:46:49.418Z,1235
2022-10-11T05:47:41.152Z,1340
2022-10-11T05:48:32.898Z,1352
2022-10-11T05:49:24.643Z,1185
2022-10-11T05:50:19.734Z,1223
2022-10-11T05:51:08.112Z,1154
2022-10-11T05:51:59.877Z,1096
2022-10-11T05:52:51.586Z,1140
2022-10-11T05:53:43.343Z,1142
2022-10-11T05:54:35.052Z,1179
2022-10-11T05:55:26.994Z,1094
2022-10-11T05:56:18.520Z,1173
2022-10-11T05:57:10.214Z,1027
2022-10-11T05:58:02.021Z,1046
2022-10-11T05:58:55.649Z,1104
2022-10-11T05:59:45.501Z,1098
2022-10-11T06:00:37.286Z,1179
2022-10-11T06:01:29.067Z,1263
2022-10-11T06:02:20.667Z,1275
2022-10-11T06:03:12.458Z,1171
2022-10-11T06:04:04.229Z,1269
2022-10-11T06:04:55.936Z,1169
2022-10-11T06:05:47.682Z,1056
2022-10-11T06:06:39.404Z,985
2022-10-11T06:07:31.158Z,953
2022-10-11T06:08:22.893Z,955
2022-10-11T06:09:14.628Z,1029
2022-10-11T06:10:06.307Z,1213
2022-10-11T06:10:58.105Z,1225
2022-10-11T06:11:49.828Z,1259
2022-10-11T06:12:41.584Z,1289
2022-10-11T06:13:33.327Z,1243
2022-10-11T06:14:25.065Z,1148
2022-10-11T06:15:16.787Z,1138
2022-10-11T06:16:08.761Z,1138
2022-10-11T06:17:00.189Z,1058
2022-10-11T06:17:52.028Z,1108
2022-10-11T06:18:43.767Z,1171
2022-10-11T06:19:35.483Z,1187
2022-10-11T06:20:27.227Z,1253
2022-10-11T06:21:18.960Z,1332
2022-10-11T06:22:10.615Z,1326
2022-10-11T06:23:02.460Z,1332
2022-10-11T06:23:59.843Z,1370
2022-10-11T06:24:45.901Z,1384
2022-10-11T06:25:37.659Z,1384
2022-10-11T06:26:29.388Z,1364
2022-10-11T06:27:21.125Z,1366
2022-10-11T06:28:12.938Z,1241
2022-10-11T06:29:04.581Z,1295
2022-10-11T06:29:56.333Z,1231
2022-10-11T06:30:48.042Z,1257
2022-10-11T06:31:39.857Z,1185
2022-10-11T06:32:31.513Z,1255
2022-10-11T06:33:23.264Z,1263
2022-10-11T06:34:14.987Z,1136
2022-10-11T06:35:06.674Z,5480
2022-10-11T06:35:58.460Z,4525
2022-10-11T06:36:50.107Z,8092
2022-10-11T06:37:41.933Z,3464
2022-10-11T06:38:33.700Z,3321
2022-10-11T06:39:25.416Z,3538
2022-10-11T06:40:17.157Z,7405
2022-10-11T06:41:08.872Z,13681
2022-10-11T06:42:00.580Z,12597
2022-10-11T06:42:52.333Z,16689
2022-10-11T06:43:44.104Z,14619
2022-10-11T06:44:35.799Z,13948
2022-10-11T06:45:27.560Z,13697
2022-10-11T06:46:19.262Z,13762
2022-10-11T06:47:11.004Z,17955
2022-10-11T06:48:02.733Z,15195
2022-10-11T06:48:54.492Z,14344
2022-10-11T06:49:46.202Z,20942
2022-10-11T06:50:58.382Z,25715
2022-10-11T06:51:29.672Z,20163
2022-10-11T06:52:21.417Z,22857
2022-10-11T06:53:13.161Z,24351
2022-10-11T06:54:04.883Z,21786
2022-10-11T06:54:56.618Z,26753
2022-10-11T06:55:48.349Z,21689
2022-10-11T06:56:40.050Z,20942
2022-10-11T06:57:31.834Z,22857
2022-10-11T06:58:23.540Z,19124
2022-10-11T06:59:15.298Z,17305
2022-10-11T07:00:10.298Z,17760
2022-10-11T07:00:58.840Z,24611
2022-10-11T07:01:50.459Z,19189
2022-10-11T07:02:42.235Z,14805
2022-10-11T07:03:33.953Z,16786
2022-10-11T07:04:25.703Z,19351
2022-10-11T07:05:17.421Z,16559
2022-10-11T07:06:09.950Z,13608
2022-10-11T07:07:00.878Z,13034
2022-10-11T07:07:52.645Z,14328
2022-10-11T07:08:44.351Z,13236
2022-10-11T07:09:36.110Z,13172
2022-10-11T07:10:27.851Z,13131
2022-10-11T07:11:19.585Z,13479
2022-10-11T07:12:11.297Z,12330
2022-10-11T07:13:03.049Z,12387
2022-10-11T07:13:54.779Z,12711
2022-10-11T07:14:46.517Z,12403
2022-10-11T07:15:38.332Z,11934
2022-10-11T07:16:29.994Z,11505
2022-10-11T07:17:21.723Z,12436
2022-10-11T07:18:13.443Z,11691
2022-10-11T07:19:05.170Z,11069
2022-10-11T07:19:56.914Z,11902
2022-10-11T07:20:48.669Z,10818
2022-10-11T07:21:40.303Z,10519
2022-10-11T07:22:32.116Z,11141
2022-10-11T07:23:23.890Z,10519
2022-10-11T07:24:15.581Z,10785
2022-10-11T07:25:07.388Z,10624
2022-10-11T07:25:59.053Z,10697
2022-10-11T07:26:50.857Z,10227
2022-10-11T07:27:42.520Z,10058
2022-10-11T07:28:34.341Z,10244
2022-10-11T07:29:26.006Z,9556
2022-10-11T07:30:17.749Z,9160
2022-10-11T07:31:09.458Z,9087
2022-10-11T07:32:01.151Z,9774
2022-10-11T07:32:52.934Z,8715
2022-10-11T07:33:44.692Z,8990
2022-10-11T07:34:36.407Z,8505
2022-10-11T07:35:28.204Z,8585
2022-10-11T07:36:19.875Z,7906
2022-10-11T07:37:11.640Z,7825
2022-10-11T07:38:03.345Z,8294
2022-10-11T07:38:55.092Z,8828
2022-10-11T07:39:46.839Z,7057
2022-10-11T07:40:38.565Z,7502
2022-10-11T07:41:30.203Z,7510
2022-10-11T07:42:22.043Z,7736
2022-10-11T07:43:13.761Z,7186
2022-10-11T07:44:05.526Z,6774
2022-10-11T07:44:57.232Z,7130
2022-10-11T07:45:48.984Z,6976
2022-10-11T07:46:40.625Z,7227
2022-10-11T07:47:32.355Z,6288
2022-10-11T07:48:24.187Z,6749
2022-10-11T07:49:15.929Z,7154
2022-10-11T07:50:07.676Z,6555
2022-10-11T07:50:59.400Z,6288
2022-10-11T07:51:51.141Z,5811
2022-10-11T07:52:42.862Z,5924
2022-10-11T07:53:34.589Z,6571
2022-10-11T07:54:26.332Z,5860
2022-10-11T07:55:18.057Z,6062
2022-10-11T07:56:09.798Z,5763
2022-10-11T07:57:01.443Z,4776
2022-10-11T07:57:53.263Z,4905
2022-10-11T07:58:44.994Z,5229
2022-10-11T07:59:36.731Z,4897
2022-10-11T08:00:28.453Z,5083
2022-10-11T08:01:20.239Z,4121
2022-10-11T08:02:11.959Z,4315
2022-10-11T08:03:03.667Z,4865
2022-10-11T08:03:55.394Z,4064
2022-10-11T08:04:47.135Z,3741
2022-10-11T08:05:38.863Z,3975
2022-10-11T08:06:30.744Z,3999
2022-10-11T08:07:22.330Z,3959
2022-10-11T08:08:14.131Z,3660
2022-10-11T08:09:05.788Z,3286
2022-10-11T08:09:57.541Z,3369
2022-10-11T08:10:49.254Z,3514
2022-10-11T08:11:41.014Z,3514
2022-10-11T08:12:32.717Z,3417
2022-10-11T08:13:24.479Z,3329
2022-10-11T08:14:16.200Z,3317
2022-10-11T08:15:07.932Z,3466
2022-10-11T08:15:59.656Z,3379
2022-10-11T08:16:51.411Z,3305
2022-10-11T08:17:43.132Z,3365
2022-10-11T08:18:34.876Z,3333
2022-10-11T08:19:26.623Z,3258
2022-10-11T08:20:18.355Z,3353
2022-10-11T08:21:10.084Z,3309
2022-10-11T08:22:01.838Z,3107
2022-10-11T08:22:53.536Z,3111
2022-10-11T08:23:45.286Z,3161
2022-10-11T08:24:38.471Z,3172
2022-10-11T08:25:28.763Z,2978
2022-10-11T08:26:20.406Z,3073
2022-10-11T08:27:12.247Z,3053
2022-10-11T08:28:03.984Z,2726
2022-10-11T08:28:55.865Z,2692
2022-10-11T08:29:47.445Z,2821
2022-10-11T08:30:39.178Z,2744
2022-10-11T08:31:30.849Z,2857
2022-10-11T08:32:22.664Z,2799
2022-10-11T08:33:14.385Z,2680
2022-10-11T08:34:06.130Z,2674
2022-10-11T08:34:57.878Z,2629
2022-10-11T08:35:49.618Z,2496
2022-10-11T08:36:41.343Z,2722
2022-10-11T08:37:33.083Z,2863
2022-10-11T08:38:24.818Z,2883
2022-10-11T08:39:16.556Z,2875
2022-10-11T08:40:08.295Z,2897
2022-10-11T08:41:00.047Z,2823
2022-10-11T08:41:51.771Z,2845
2022-10-11T08:42:43.508Z,2893
2022-10-11T08:43:35.245Z,2762
2022-10-11T08:44:26.982Z,2897
2022-10-11T08:45:18.731Z,2887
2022-10-11T08:46:10.394Z,3049
2022-10-11T08:47:02.188Z,3075
2022-10-11T08:47:53.935Z,3254
2022-10-11T08:48:45.655Z,3311
2022-10-11T08:49:37.404Z,3349
2022-10-11T08:50:29.128Z,3168
2022-10-11T08:51:20.809Z,3047
2022-10-11T08:52:12.605Z,3049
2022-10-11T08:53:04.495Z,3109
2022-10-11T08:53:56.088Z,3043
2022-10-11T08:54:47.832Z,3020
2022-10-11T08:55:39.544Z,3000
2022-10-11T08:56:31.304Z,2954
2022-10-11T08:57:23.020Z,2992
2022-10-11T08:58:14.788Z,3002
2022-10-11T08:59:06.488Z,2930
2022-10-11T08:59:58.243Z,2960
2022-10-11T09:00:50.012Z,2924
2022-10-11T09:01:41.742Z,2986
2022-10-11T09:02:55.525Z,2976
2022-10-11T09:03:25.197Z,3004
2022-10-11T09:04:16.908Z,3045
2022-10-11T09:05:08.664Z,3000
2022-10-11T09:06:00.292Z,3016
2022-10-11T09:06:52.133Z,3002
2022-10-11T09:07:43.852Z,3006
2022-10-11T09:08:35.622Z,2962
2022-10-11T09:09:27.338Z,2942
2022-10-11T09:10:19.077Z,2952
2022-10-11T09:11:10.763Z,2887
2022-10-11T09:12:02.549Z,2853
2022-10-11T09:12:54.285Z,2787
2022-10-11T09:13:46.043Z,2764
2022-10-11T09:14:37.764Z,2797
2022-10-11T09:15:29.515Z,2704
2022-10-11T09:16:21.242Z,2750
2022-10-11T09:17:12.971Z,2781
2022-10-11T09:18:04.688Z,5447
2022-10-11T09:18:56.451Z,3174
2022-10-11T09:19:48.156Z,2102
2022-10-11T09:20:39.908Z,1854
2022-10-11T09:21:31.635Z,1692
2022-10-11T09:22:28.092Z,2247
2022-10-11T09:23:15.089Z,3478
2022-10-11T09:24:06.827Z,1753
2022-10-11T09:24:58.545Z,1106
2022-10-11T09:25:50.275Z,692
2022-10-11T09:26:41.998Z,685
2022-10-11T09:27:57.828Z,628
2022-10-11T09:28:25.503Z,576
2022-10-11T09:29:17.201Z,546
2022-10-11T09:30:08.896Z,518
2022-10-11T09:31:00.553Z,494
2022-10-11T09:31:52.338Z,467
2022-10-11T09:32:44.082Z,465
2022-10-11T09:33:35.787Z,437
2022-10-11T09:34:27.514Z,422
2022-10-11T09:35:19.213Z,435
2022-10-11T09:36:10.896Z,466
2022-10-11T09:37:02.657Z,461
2022-10-11T09:37:54.383Z,450
2022-10-11T09:38:46.109Z,442
2022-10-11T09:39:37.826Z,493
2022-10-11T09:40:29.536Z,481
2022-10-11T09:41:21.255Z,1298
2022-10-11T09:42:12.975Z,1989
2022-10-11T09:43:04.698Z,693
2022-10-11T09:43:56.398Z,624
2022-10-11T09:44:48.110Z,514
2022-10-11T09:45:39.837Z,444
2022-10-11T09:46:31.583Z,401
2022-10-11T09:47:23.270Z,397
2022-10-11T09:48:15.016Z,369
2022-10-11T09:49:06.714Z,353
2022-10-11T09:49:58.463Z,348
2022-10-11T09:50:50.153Z,309
2022-10-11T09:51:41.903Z,325
2022-10-11T09:52:33.599Z,286
2022-10-11T09:53:25.415Z,281
2022-10-11T09:54:17.030Z,256
2022-10-11T09:55:08.772Z,254
2022-10-11T09:56:00.389Z,255
2022-10-11T09:56:52.260Z,243
2022-10-11T09:57:43.931Z,241
2022-10-11T09:58:35.647Z,253
2022-10-11T09:59:27.363Z,254
2022-10-11T10:00:19.117Z,246
2022-10-11T10:01:10.782Z,267
2022-10-11T10:02:02.580Z,267
2022-10-11T10:02:54.245Z,320
2022-10-11T10:03:45.961Z,391
2022-10-11T10:04:37.672Z,398
2022-10-11T10:05:29.402Z,385
2022-10-11T10:06:21.101Z,395
2022-10-11T10:07:12.859Z,382
2022-10-11T10:08:05.219Z,384
2022-10-11T10:08:56.275Z,361
2022-10-11T10:09:47.985Z,323
2022-10-11T10:10:39.730Z,338
2022-10-11T10:11:31.330Z,353
2022-10-11T10:12:23.152Z,349
2022-10-11T10:13:14.850Z,322
2022-10-11T10:14:06.588Z,311
2022-10-11T10:14:58.287Z,315
2022-10-11T10:15:50.033Z,289
2022-10-11T10:16:41.741Z,288
2022-10-11T10:17:33.477Z,290
2022-10-11T10:18:25.177Z,290
2022-10-11T10:19:16.906Z,295
2022-10-11T10:20:08.657Z,360
2022-10-11T10:21:00.353Z,385
2022-10-11T10:21:52.076Z,380
2022-10-11T10:22:43.808Z,361
2022-10-11T10:23:35.493Z,353
2022-10-11T10:24:27.239Z,351
2022-10-11T10:25:18.941Z,369
2022-10-11T10:26:10.605Z,372
2022-10-11T10:27:02.412Z,385
2022-10-11T10:27:54.144Z,399
2022-10-11T10:28:45.987Z,415
2022-10-11T10:29:37.616Z,421
2022-10-11T10:30:34.533Z,445
2022-10-11T10:31:20.989Z,417
2022-10-11T10:32:14.679Z,430
2022-10-11T10:33:04.516Z,453
2022-10-11T10:33:56.243Z,472
2022-10-11T10:34:48.001Z,465
2022-10-11T10:35:39.710Z,459
2022-10-11T10:36:31.467Z,516
2022-10-11T10:37:23.199Z,508
2022-10-11T10:38:14.947Z,465
2022-10-11T10:39:06.657Z,425
2022-10-11T10:39:58.419Z,443
2022-10-11T10:40:50.199Z,454
2022-10-11T10:41:41.884Z,457
2022-10-11T10:42:33.600Z,395
2022-10-11T10:43:25.342Z,356
2022-10-11T10:44:17.068Z,321
2022-10-11T10:45:12.276Z,286
2022-10-11T10:46:00.445Z,307
2022-10-11T10:46:52.230Z,303
2022-10-11T10:47:43.943Z,316
2022-10-11T10:49:09.062Z,371
2022-10-11T10:49:53.522Z,415
2022-10-11T10:50:19.103Z,515
2022-10-11T10:51:10.735Z,515
2022-10-11T10:52:02.569Z,503
2022-10-11T10:52:54.254Z,429
2022-10-11T10:53:45.977Z,429
2022-10-11T10:54:37.701Z,520
2022-10-11T10:55:29.412Z,594
2022-10-11T10:56:21.040Z,607
2022-10-11T10:57:12.827Z,639
2022-10-11T10:58:04.519Z,651
2022-10-11T10:58:56.249Z,626
2022-10-11T10:59:47.957Z,599
2022-10-11T11:00:39.692Z,601
2022-10-11T11:01:31.460Z,603
2022-10-11T11:02:40.207Z,568
2022-10-11T11:03:14.816Z,537
2022-10-11T11:04:06.552Z,430
2022-10-11T11:05:50.010Z,364
2022-10-11T11:06:41.659Z,329
2022-10-11T11:07:33.366Z,326
2022-10-11T11:08:25.064Z,321
2022-10-11T11:09:16.783Z,328
2022-10-11T11:10:08.497Z,331
2022-10-11T11:11:00.202Z,307
2022-10-11T11:11:51.911Z,315
2022-10-11T11:12:43.641Z,301
2022-10-11T11:13:35.340Z,287
2022-10-11T11:14:27.077Z,282
2022-10-11T11:15:19.889Z,260
2022-10-11T11:16:10.484Z,299
2022-10-11T11:17:02.147Z,271
2022-10-11T11:17:53.933Z,266
2022-10-11T11:18:45.617Z,277
2022-10-11T11:19:37.345Z,290
2022-10-11T11:20:29.054Z,376
2022-10-11T11:21:20.684Z,407
2022-10-11T11:22:12.489Z,438
2022-10-11T11:23:04.133Z,460
2022-10-11T11:23:55.911Z,452
2022-10-11T11:24:47.632Z,465
2022-10-11T11:25:44.536Z,527
2022-10-11T11:26:31.002Z,554
2022-10-11T11:27:22.805Z,565
2022-10-11T11:28:14.595Z,559
2022-10-11T11:29:06.242Z,592
2022-10-11T11:29:57.981Z,593
2022-10-11T11:30:49.690Z,608
2022-10-11T11:31:41.434Z,601